Time;durP1;ratioP1;P1;durP2;ratioP2;P2;SDS_P1;SDS_P2;PMS_P1;PMS_P2;Temp;Humidity;BMP_temperature;BMP_pressure;BME280_temperature;BME280_humidity;BME280_pressure;Samples;Min_cycle;Max_cycle;Signal;HPM_P1;HPM_P2
2024/04/10 00:00:25;;;;;;;2.77;2.10;;;10.60;98.00;;;;;;5468911;26;20477;-63
2024/04/10 00:02:54;;;;;;;3.50;1.87;;;10.60;98.00;;;;;;5469037;26;20502;-63
2024/04/10 00:05:24;;;;;;;3.50;1.80;;;10.50;98.00;;;;;;5466943;26;20518;-63
2024/04/10 00:07:51;;;;;;;2.63;2.00;;;10.40;98.00;;;;;;5468870;26;20450;-63
2024/04/10 00:10:20;;;;;;;2.20;1.70;;;10.20;98.00;;;;;;5468840;26;20445;-63
2024/04/10 00:12:46;;;;;;;4.77;2.10;;;10.30;98.00;;;;;;5469125;26;20510;-63
2024/04/10 00:15:16;;;;;;;6.40;2.10;;;10.40;98.00;;;;;;5467200;26;20455;-63
2024/04/10 00:17:42;;;;;;;3.93;1.97;;;10.40;98.00;;;;;;5468702;26;20461;-63
2024/04/10 00:20:21;;;;;;;1.97;1.60;;;10.30;98.00;;;;;;5469150;26;20975;-62
2024/04/10 00:22:47;;;;;;;3.00;1.90;;;10.30;98.00;;;;;;5617115;21;20546;-63
2024/04/10 00:25:17;;;;;;;2.60;1.80;;;10.30;98.00;;;;;;5396579;26;20580;-63
2024/04/10 00:27:43;;;;;;;3.07;1.80;;;10.50;98.00;;;;;;5396946;26;20466;-63
2024/04/10 00:30:12;;;;;;;3.40;1.90;;;10.50;98.00;;;;;;5396696;26;20848;-63
2024/04/10 00:32:38;;;;;;;2.90;1.90;;;10.30;98.00;;;;;;5396670;26;20541;-63
2024/04/10 00:35:07;;;;;;;2.70;1.97;;;10.10;98.00;;;;;;5396253;26;20515;-63
2024/04/10 00:37:37;;;;;;;2.20;1.80;;;10.00;98.00;;;;;;5396649;26;20510;-63
2024/04/10 00:40:08;;;;;;;2.30;1.70;;;10.10;98.00;;;;;;5396533;26;20459;-63
2024/04/10 00:42:35;;;;;;;5.23;1.87;;;10.10;98.00;;;;;;5366579;26;20464;-63
2024/04/10 00:45:04;;;;;;;2.57;1.60;;;10.10;98.00;;;;;;5396295;26;20826;-63
2024/04/10 00:47:31;;;;;;;3.03;1.83;;;10.00;98.00;;;;;;5396617;26;20844;-63
2024/04/10 00:50:00;;;;;;;2.13;1.83;;;10.20;98.00;;;;;;5365553;26;20502;-63
2024/04/10 00:52:27;;;;;;;2.63;1.73;;;10.20;98.00;;;;;;5396110;26;20459;-63
2024/04/10 00:54:58;;;;;;;6.53;2.13;;;10.30;98.00;;;;;;5392746;26;20464;-63
2024/04/10 00:57:24;;;;;;;4.70;2.00;;;10.20;98.00;;;;;;5381056;26;20460;-63
2024/04/10 00:59:53;;;;;;;2.30;1.67;;;10.20;98.00;;;;;;5350571;26;20468;-63
2024/04/10 01:02:19;;;;;;;3.77;1.80;;;10.20;98.00;;;;;;5380806;26;20463;-63
2024/04/10 01:04:49;;;;;;;2.00;1.70;;;10.20;98.00;;;;;;5380950;26;21045;-63
2024/04/10 01:07:16;;;;;;;2.60;1.70;;;10.20;98.00;;;;;;5381005;26;20597;-63
2024/04/10 01:09:44;;;;;;;2.50;1.93;;;10.20;98.00;;;;;;5381257;26;20964;-63
2024/04/10 01:12:14;;;;;;;3.10;1.50;;;10.20;98.00;;;;;;5380797;26;20455;-63
2024/04/10 01:14:43;;;;;;;2.87;1.70;;;10.20;98.00;;;;;;5381187;26;20459;-63
2024/04/10 01:17:09;;;;;;;2.33;1.90;;;10.30;98.00;;;;;;5381102;26;20565;-63
2024/04/10 01:19:38;;;;;;;5.37;2.07;;;10.20;98.00;;;;;;5350623;26;20569;-63
2024/04/10 01:22:04;;;;;;;3.63;1.97;;;10.20;98.00;;;;;;5381309;26;20464;-63
2024/04/10 01:24:35;;;;;;;2.43;1.80;;;10.30;98.00;;;;;;5381384;26;20472;-63
2024/04/10 01:27:02;;;;;;;3.40;2.23;;;10.30;98.00;;;;;;5381076;26;20460;-63
2024/04/10 01:29:33;;;;;;;3.30;1.70;;;10.10;98.00;;;;;;5380824;26;20519;-63
2024/04/10 01:31:59;;;;;;;2.60;1.90;;;10.00;98.00;;;;;;5380774;26;20598;-63
2024/04/10 01:34:28;;;;;;;3.60;1.87;;;10.00;98.00;;;;;;5380499;26;20529;-63
2024/04/10 01:36:55;;;;;;;2.27;1.70;;;10.10;98.00;;;;;;5380411;26;20515;-63
2024/04/10 01:39:24;;;;;;;6.07;1.77;;;10.10;98.00;;;;;;5380567;26;20459;-63
2024/04/10 01:41:53;;;;;;;4.93;1.93;;;10.10;98.00;;;;;;5380615;26;20471;-63
2024/04/10 01:44:21;;;;;;;5.43;1.80;;;10.20;98.00;;;;;;5380746;26;20519;-63
2024/04/10 01:46:49;;;;;;;2.80;1.90;;;10.20;98.00;;;;;;5350391;26;20840;-64
2024/04/10 01:49:18;;;;;;;2.50;1.83;;;10.00;98.00;;;;;;5380232;26;20512;-63
2024/04/10 01:51:44;;;;;;;2.70;1.93;;;10.00;98.00;;;;;;5380138;26;20460;-63
2024/04/10 01:54:13;;;;;;;4.80;2.20;;;9.90;98.00;;;;;;5380314;26;20585;-63
2024/04/10 01:56:39;;;;;;;2.70;1.80;;;9.80;98.00;;;;;;5380458;26;20546;-63
2024/04/10 01:59:11;;;;;;;2.00;1.70;;;9.90;98.00;;;;;;5379971;26;20484;-63
2024/04/10 02:01:37;;;;;;;2.60;1.80;;;10.00;98.00;;;;;;5380254;26;21012;-63
2024/04/10 02:04:06;;;;;;;2.40;1.93;;;10.10;98.00;;;;;;5379964;26;20463;-63
2024/04/10 02:06:32;;;;;;;2.80;1.80;;;10.10;98.00;;;;;;5379238;26;21244;-63
2024/04/10 02:09:01;;;;;;;2.80;1.93;;;10.10;98.00;;;;;;5379355;26;20511;-63
2024/04/10 02:11:28;;;;;;;2.53;1.70;;;10.00;98.00;;;;;;5350099;26;20854;-63
2024/04/10 02:13:58;;;;;;;2.47;1.87;;;10.00;98.00;;;;;;5379766;26;20476;-63
2024/04/10 02:16:28;;;;;;;3.00;1.90;;;9.90;98.00;;;;;;5379993;26;20670;-63
2024/04/10 02:18:59;;;;;;;3.07;2.10;;;9.90;98.00;;;;;;5380187;26;20581;-63
2024/04/10 02:21:25;;;;;;;2.20;1.80;;;9.90;98.00;;;;;;5322390;26;20466;-64
2024/04/10 02:23:53;;;;;;;4.10;2.10;;;9.80;98.00;;;;;;5380326;26;20468;-63
2024/04/10 02:26:20;;;;;;;2.33;1.80;;;9.80;98.00;;;;;;5380282;26;20565;-63
2024/04/10 02:28:49;;;;;;;3.20;1.70;;;9.80;98.00;;;;;;5349405;26;20575;-63
2024/04/10 02:31:15;;;;;;;6.20;2.00;;;9.90;98.00;;;;;;5379763;26;20842;-63
2024/04/10 02:33:47;;;;;;;3.50;2.00;;;10.00;98.00;;;;;;5379724;26;20522;-63
2024/04/10 02:36:14;;;;;;;6.33;2.10;;;9.90;98.00;;;;;;5379738;26;20465;-63
2024/04/10 02:38:43;;;;;;;3.50;1.90;;;10.00;98.00;;;;;;5349075;26;20516;-63
2024/04/10 02:41:09;;;;;;;3.93;1.80;;;10.00;98.00;;;;;;5379547;26;20521;-63
2024/04/10 02:43:38;;;;;;;3.53;1.97;;;10.00;98.00;;;;;;5379610;26;20506;-63
2024/04/10 02:46:07;;;;;;;2.57;1.87;;;10.00;98.00;;;;;;5350219;26;20468;-65
2024/04/10 02:48:36;;;;;;;3.07;1.87;;;10.10;98.00;;;;;;5380214;26;21012;-65
2024/04/10 02:51:24;;;;;;;5.40;2.10;;;10.00;98.00;;;;;;5380212;26;20503;-63
2024/04/10 02:53:53;;;;;;;3.33;2.00;;;9.70;98.00;;;;;;5648672;21;21096;-86
2024/04/10 02:56:20;;;;;;;2.43;1.97;;;9.80;98.00;;;;;;5416725;26;20456;-86
2024/04/10 02:58:49;;;;;;;2.30;1.80;;;9.90;98.00;;;;;;5416523;26;20463;-86
2024/04/10 03:01:15;;;;;;;3.90;1.80;;;9.90;98.00;;;;;;5416245;26;20447;-87
2024/04/10 03:03:44;;;;;;;5.03;1.90;;;9.80;98.00;;;;;;5415918;26;20459;-87
2024/04/10 03:06:10;;;;;;;3.40;1.90;;;9.80;98.00;;;;;;5416715;26;20454;-86
2024/04/10 03:08:41;;;;;;;3.23;1.80;;;9.90;98.00;;;;;;5415871;26;20478;-86
2024/04/10 03:11:07;;;;;;;5.57;2.33;;;9.90;98.00;;;;;;5416169;26;20494;-86
2024/04/10 03:13:37;;;;;;;3.13;1.83;;;9.90;98.00;;;;;;5415678;26;20462;-86
2024/04/10 03:16:06;;;;;;;2.27;1.70;;;9.80;98.00;;;;;;5416479;26;20522;-86
2024/04/10 03:18:35;;;;;;;2.37;1.90;;;9.60;98.00;;;;;;5414901;26;20516;-87
2024/04/10 03:21:01;;;;;;;5.93;1.90;;;9.60;98.00;;;;;;5415924;26;20454;-86
2024/04/10 03:23:31;;;;;;;3.50;1.70;;;9.40;98.00;;;;;;5415238;26;20460;-86
2024/04/10 03:26:08;;;;;;;2.73;1.80;;;9.30;98.00;;;;;;5415318;26;20458;-86
2024/04/10 03:28:40;;;;;;;3.87;1.90;;;9.20;98.00;;;;;;5415575;26;21037;-87
2024/04/10 03:31:07;;;;;;;3.40;2.00;;;9.20;98.00;;;;;;5415147;26;21218;-88
2024/04/10 03:33:36;;;;;;;2.47;1.90;;;9.10;98.00;;;;;;5415252;26;20518;-87
2024/04/10 03:36:04;;;;;;;2.80;1.80;;;8.90;98.00;;;;;;5415623;26;20796;-87
2024/04/10 03:38:33;;;;;;;2.47;1.87;;;8.80;98.00;;;;;;5416633;26;20531;-86
2024/04/10 03:40:59;;;;;;;4.03;1.83;;;8.80;98.00;;;;;;5415439;26;20459;-86
2024/04/10 03:43:30;;;;;;;4.73;1.80;;;8.70;98.00;;;;;;5414425;26;20510;-87
2024/04/10 03:46:00;;;;;;;3.40;1.73;;;8.80;98.00;;;;;;5415066;26;20447;-86
2024/04/10 03:48:29;;;;;;;7.57;1.90;;;8.80;98.00;;;;;;5414684;26;20487;-86
2024/04/10 03:51:01;;;;;;;3.80;1.80;;;8.80;98.00;;;;;;5414591;26;20453;-88
2024/04/10 03:53:28;;;;;;;3.03;1.80;;;8.90;98.00;;;;;;5414370;26;20501;-85
2024/04/10 03:55:57;;;;;;;5.50;1.87;;;8.90;98.00;;;;;;5415052;26;20470;-87
2024/04/10 03:58:23;;;;;;;2.03;1.70;;;8.90;98.00;;;;;;5414814;26;20544;-86
2024/04/10 04:00:55;;;;;;;3.27;1.90;;;9.00;98.00;;;;;;5414584;26;20583;-86
2024/04/10 04:03:21;;;;;;;3.97;1.70;;;9.00;98.00;;;;;;5413640;26;20458;-87
2024/04/10 04:05:50;;;;;;;2.83;1.87;;;9.00;98.00;;;;;;5414417;26;20575;-87
2024/04/10 04:08:16;;;;;;;3.50;1.90;;;9.00;98.00;;;;;;5414611;26;21024;-87
2024/04/10 04:10:46;;;;;;;3.40;1.90;;;8.90;98.00;;;;;;5414326;26;20458;-87
2024/04/10 04:13:13;;;;;;;4.03;2.00;;;8.90;98.00;;;;;;5413994;26;20969;-87
2024/04/10 04:15:45;;;;;;;4.27;1.70;;;8.80;98.00;;;;;;5414719;26;20446;-87
2024/04/10 04:18:14;;;;;;;2.53;1.60;;;8.80;98.00;;;;;;5413875;26;20516;-87
2024/04/10 04:20:45;;;;;;;2.07;1.67;;;8.90;98.00;;;;;;5414434;26;20470;-87
2024/04/10 04:23:11;;;;;;;4.37;2.00;;;8.80;98.00;;;;;;5413895;26;20509;-87
2024/04/10 04:25:40;;;;;;;4.57;1.60;;;8.80;98.00;;;;;;5414208;26;20561;-87
2024/04/10 04:28:06;;;;;;;6.17;2.20;;;8.80;98.00;;;;;;5414043;26;20657;-87
2024/04/10 04:30:35;;;;;;;5.20;1.90;;;8.80;98.00;;;;;;5415044;26;20450;-86
2024/04/10 04:33:01;;;;;;;4.03;1.80;;;8.80;98.00;;;;;;5416964;26;20455;-87
2024/04/10 04:35:35;;;;;;;3.67;1.77;;;8.80;98.00;;;;;;5418654;26;20785;-87
2024/04/10 04:38:01;;;;;;;2.80;1.70;;;8.70;98.00;;;;;;5417841;26;20525;-87
2024/04/10 04:40:32;;;;;;;4.87;1.70;;;8.70;98.00;;;;;;5417747;26;20809;-88
2024/04/10 04:42:59;;;;;;;1.60;1.37;;;8.80;98.00;;;;;;5417386;26;21175;-87
2024/04/10 04:45:29;;;;;;;3.53;1.50;;;8.80;98.00;;;;;;5417019;26;20559;-87
2024/04/10 04:47:55;;;;;;;3.57;1.77;;;8.90;98.00;;;;;;5417187;26;20823;-86
2024/04/10 04:50:25;;;;;;;2.27;1.70;;;9.00;98.00;;;;;;5417696;26;20556;-87
2024/04/10 04:52:54;;;;;;;3.63;2.07;;;9.00;98.00;;;;;;5416671;26;20459;-87
2024/04/10 04:55:23;;;;;;;4.30;1.63;;;8.80;98.00;;;;;;5417976;26;20499;-87
2024/04/10 04:57:49;;;;;;;2.47;1.50;;;8.80;98.00;;;;;;5417461;26;20524;-87
2024/04/10 05:00:19;;;;;;;3.97;2.00;;;8.70;98.00;;;;;;5416512;26;20546;-86
2024/04/10 05:02:47;;;;;;;2.73;1.70;;;8.70;98.00;;;;;;5416986;26;20613;-87
2024/04/10 05:05:16;;;;;;;9.80;4.60;;;8.70;98.00;;;;;;5417697;26;20509;-86
2024/04/10 05:07:43;;;;;;;3.70;2.40;;;8.80;98.00;;;;;;5420406;26;20533;-87
2024/04/10 05:10:16;;;;;;;6.40;2.47;;;8.90;98.00;;;;;;5423532;26;20542;-87
2024/04/10 05:12:43;;;;;;;3.27;2.30;;;8.90;98.00;;;;;;5428300;26;20548;-87
2024/04/10 05:15:13;;;;;;;3.83;1.90;;;8.90;98.00;;;;;;5437871;26;20555;-86
2024/04/10 05:17:39;;;;;;;3.00;1.97;;;8.90;98.00;;;;;;5438309;26;20520;-86
2024/04/10 05:20:11;;;;;;;5.83;2.20;;;8.90;98.00;;;;;;5437493;26;20447;-87
2024/04/10 05:22:39;;;;;;;5.33;1.80;;;8.80;98.00;;;;;;5439963;26;20506;-87
2024/04/10 05:25:09;;;;;;;6.13;2.00;;;8.80;98.00;;;;;;5442159;26;20454;-87
2024/04/10 05:27:38;;;;;;;4.20;2.10;;;8.80;98.00;;;;;;5431974;26;20466;-87
2024/04/10 05:30:09;;;;;;;3.70;1.90;;;8.90;98.00;;;;;;5418567;26;20495;-87
2024/04/10 05:32:37;;;;;;;5.63;1.73;;;8.90;98.00;;;;;;5416456;26;20457;-87
2024/04/10 05:35:10;;;;;;;3.53;1.80;;;8.90;98.00;;;;;;5417996;26;20459;-87
2024/04/10 05:37:36;;;;;;;2.73;1.80;;;9.10;98.00;;;;;;5417363;26;20541;-87
2024/04/10 05:40:05;;;;;;;4.27;2.13;;;9.30;98.00;;;;;;5417679;26;20458;-87
2024/04/10 05:42:36;;;;;;;4.23;2.00;;;9.30;98.00;;;;;;5416346;26;20451;-87
2024/04/10 05:45:07;;;;;;;2.80;1.73;;;9.40;98.00;;;;;;5417073;26;20975;-87
2024/04/10 05:47:36;;;;;;;5.07;2.97;;;9.60;98.00;;;;;;5417665;26;20497;-85
2024/04/10 05:50:02;;;;;;;9.87;4.70;;;9.50;98.00;;;;;;5417143;26;20513;-87
2024/04/10 05:52:33;;;;;;;4.53;2.30;;;9.50;98.00;;;;;;5417543;26;20451;-86
2024/04/10 05:54:59;;;;;;;2.90;1.90;;;9.70;98.00;;;;;;5417706;26;20551;-87
2024/04/10 05:57:28;;;;;;;6.50;2.10;;;9.90;98.00;;;;;;5417458;26;20569;-88
2024/04/10 05:59:54;;;;;;;3.67;1.90;;;9.90;98.00;;;;;;5417393;26;20467;-87
2024/04/10 06:02:27;;;;;;;4.70;2.07;;;9.90;98.00;;;;;;5416592;26;20527;-87
2024/04/10 06:04:53;;;;;;;2.97;1.80;;;9.80;98.00;;;;;;5417185;26;20565;-87
2024/04/10 06:07:22;;;;;;;5.47;2.13;;;10.00;98.00;;;;;;5417260;26;20566;-87
2024/04/10 06:09:52;;;;;;;2.60;1.90;;;10.10;98.00;;;;;;5417888;26;20505;-87
2024/04/10 06:12:21;;;;;;;3.53;2.00;;;10.30;98.00;;;;;;5416942;26;20924;-85
2024/04/10 06:14:51;;;;;;;5.80;2.20;;;10.40;98.00;;;;;;5417929;26;20467;-87
2024/04/10 06:17:20;;;;;;;6.10;2.10;;;10.40;98.00;;;;;;5417289;26;20529;-86
2024/04/10 06:19:49;;;;;;;4.40;2.20;;;10.60;98.00;;;;;;5417191;26;20454;-86
2024/04/10 06:22:19;;;;;;;5.23;1.93;;;10.70;98.00;;;;;;5416814;26;20459;-86
2024/04/10 06:24:45;;;;;;;6.30;2.43;;;10.70;98.00;;;;;;5417205;26;20501;-86
2024/04/10 06:27:15;;;;;;;8.63;2.40;;;10.90;98.00;;;;;;5416975;26;21073;-87
2024/04/10 06:29:42;;;;;;;3.57;2.20;;;10.90;98.00;;;;;;5417699;26;20457;-87
2024/04/10 06:32:11;;;;;;;3.00;2.40;;;10.90;98.00;;;;;;5417358;26;20495;-85
2024/04/10 06:34:37;;;;;;;5.10;2.20;;;11.00;98.00;;;;;;5416677;26;21017;-86
2024/04/10 06:37:09;;;;;;;3.70;2.10;;;11.00;98.00;;;;;;5425096;26;20455;-86
2024/04/10 06:39:35;;;;;;;4.93;2.00;;;11.10;98.00;;;;;;5440583;26;20499;-84
2024/04/10 06:42:04;;;;;;;4.17;2.20;;;11.10;98.00;;;;;;5440128;26;20509;-85
2024/04/10 06:44:30;;;;;;;5.20;2.00;;;11.10;98.00;;;;;;5440705;26;20512;-85
2024/04/10 06:46:58;;;;;;;4.30;2.00;;;11.10;98.00;;;;;;5439864;26;20447;-86
2024/04/10 06:49:27;;;;;;;4.47;2.20;;;11.10;98.00;;;;;;5418892;26;20455;-86
2024/04/10 06:51:55;;;;;;;3.80;2.00;;;11.10;98.00;;;;;;5417862;26;20460;-87
2024/04/10 06:54:24;;;;;;;5.60;2.20;;;11.10;98.00;;;;;;5416514;26;20467;-87
2024/04/10 06:56:53;;;;;;;5.83;2.23;;;11.00;98.00;;;;;;5417229;26;20474;-87
2024/04/10 06:59:19;;;;;;;5.00;2.53;;;11.00;98.00;;;;;;5417250;26;20510;-86
2024/04/10 07:01:48;;;;;;;5.57;2.50;;;11.00;98.00;;;;;;5416053;26;20462;-87
2024/04/10 07:04:14;;;;;;;5.00;2.13;;;11.10;98.00;;;;;;5416487;26;20454;-87
2024/04/10 07:06:43;;;;;;;5.33;1.97;;;11.00;98.00;;;;;;5417439;26;20816;-89
2024/04/10 07:09:09;;;;;;;2.93;2.03;;;10.90;98.00;;;;;;5418277;26;20459;-87
2024/04/10 07:11:42;;;;;;;7.13;2.00;;;10.90;98.00;;;;;;5417927;26;21044;-87
2024/04/10 07:14:08;;;;;;;5.03;2.20;;;10.90;98.00;;;;;;5416561;26;20455;-88
2024/04/10 07:16:36;;;;;;;6.27;2.53;;;10.90;98.00;;;;;;5416370;26;20560;-88
2024/04/10 07:19:05;;;;;;;2.90;1.90;;;10.80;98.00;;;;;;5416420;26;20455;-87
2024/04/10 07:21:35;;;;;;;4.30;1.93;;;10.80;98.00;;;;;;5415747;26;20460;-88
2024/04/10 07:24:03;;;;;;;4.77;2.10;;;10.70;98.00;;;;;;5417436;26;20497;-88
2024/04/10 07:26:32;;;;;;;5.23;2.20;;;10.70;98.00;;;;;;5417086;26;20446;-88
2024/04/10 07:29:00;;;;;;;5.40;1.97;;;10.80;98.00;;;;;;5416982;26;20451;-87
2024/04/10 07:31:31;;;;;;;4.73;2.10;;;10.90;98.00;;;;;;5416992;26;20458;-87
2024/04/10 07:33:58;;;;;;;5.93;2.27;;;10.90;98.00;;;;;;5417802;26;20451;-86
2024/04/10 07:36:28;;;;;;;4.33;2.17;;;10.70;98.00;;;;;;5420799;26;20455;-87
2024/04/10 07:38:55;;;;;;;6.60;2.30;;;10.60;98.00;;;;;;5417975;26;20597;-89
2024/04/10 07:41:24;;;;;;;7.63;3.07;;;10.50;98.00;;;;;;5417316;26;20474;-89
2024/04/10 07:43:51;;;;;;;6.87;2.43;;;10.60;98.00;;;;;;5407128;26;20745;-87
2024/04/10 07:46:23;;;;;;;8.80;2.50;;;10.80;98.00;;;;;;5381775;26;20470;-89
2024/04/10 07:48:52;;;;;;;4.53;2.10;;;10.90;98.00;;;;;;5386908;26;20509;-86
2024/04/10 07:51:21;;;;;;;2.60;1.90;;;11.00;98.00;;;;;;5401977;26;20456;-86
2024/04/10 07:53:48;;;;;;;3.63;2.03;;;11.10;98.00;;;;;;5384786;26;20460;-87
2024/04/10 07:56:17;;;;;;;4.17;2.10;;;11.00;98.00;;;;;;5382755;26;20459;-86
2024/04/10 07:58:43;;;;;;;5.40;1.97;;;11.10;98.00;;;;;;5380737;26;20521;-87
2024/04/10 08:01:12;;;;;;;4.47;2.00;;;11.00;98.00;;;;;;5380096;26;20460;-89
2024/04/10 08:03:41;;;;;;;7.13;2.30;;;11.10;98.00;;;;;;5380280;26;20457;-89
2024/04/10 08:06:12;;;;;;;4.90;2.30;;;11.10;98.00;;;;;;5383308;26;20528;-89
2024/04/10 08:08:39;;;;;;;11.87;2.13;;;11.20;98.00;;;;;;5383602;26;20460;-90
2024/04/10 08:11:10;;;;;;;6.70;2.07;;;11.10;98.00;;;;;;5383743;26;20473;-89
2024/04/10 08:13:36;;;;;;;6.20;2.37;;;11.20;98.00;;;;;;5383220;26;20560;-88
2024/04/10 08:16:07;;;;;;;8.20;2.40;;;11.10;98.00;;;;;;5384214;26;20496;-88
2024/04/10 08:18:35;;;;;;;4.80;2.27;;;11.10;98.00;;;;;;5383325;26;20475;-89
2024/04/10 08:21:08;;;;;;;7.17;2.00;;;11.20;98.00;;;;;;5384003;26;20878;-87
2024/04/10 08:23:35;;;;;;;4.27;2.10;;;11.20;98.00;;;;;;5383060;26;20460;-89
2024/04/10 08:26:12;;;;;;;8.53;2.30;;;11.40;98.00;;;;;;5383077;26;20994;-87
2024/04/10 08:28:45;;;;;;;4.60;2.23;;;11.50;98.00;;;;;;5383789;26;20511;-87
2024/04/10 08:31:14;;;;;;;4.43;2.10;;;11.40;98.00;;;;;;5382471;26;21489;-87
2024/04/10 08:33:41;;;;;;;9.93;2.30;;;11.50;98.00;;;;;;5383163;26;20472;-88
2024/04/10 08:36:13;;;;;;;6.40;1.60;;;11.50;98.00;;;;;;5383455;26;20504;-88
2024/04/10 08:38:40;;;;;;;7.60;2.33;;;11.40;98.00;;;;;;5382534;26;20468;-88
2024/04/10 08:41:14;;;;;;;5.63;2.00;;;11.60;98.00;;;;;;5383520;26;20803;-89
2024/04/10 08:43:43;;;;;;;3.43;1.87;;;11.70;98.00;;;;;;5384048;26;20511;-88
2024/04/10 08:46:12;;;;;;;4.70;2.07;;;11.70;98.00;;;;;;5382538;26;20534;-87
2024/04/10 08:48:40;;;;;;;6.57;2.10;;;11.80;98.00;;;;;;5382175;26;20981;-89
2024/04/10 08:51:15;;;;;;;10.50;2.23;;;11.70;98.00;;;;;;5384028;26;20538;-90
2024/04/10 08:53:43;;;;;;;5.57;2.27;;;11.90;98.00;;;;;;5383802;26;20481;-89
2024/04/10 08:56:12;;;;;;;15.20;2.97;;;12.10;98.00;;;;;;5383137;26;20461;-89
2024/04/10 08:58:39;;;;;;;7.47;2.43;;;12.30;98.00;;;;;;5383335;26;20556;-93
2024/04/10 09:01:08;;;;;;;8.63;2.77;;;12.40;98.00;;;;;;5383541;26;20978;-90
2024/04/10 09:03:36;;;;;;;7.20;2.37;;;12.40;98.00;;;;;;5385618;26;20453;-92
2024/04/10 09:06:11;;;;;;;7.93;2.23;;;12.20;98.00;;;;;;5391284;26;20966;-92
2024/04/10 09:08:40;;;;;;;5.67;2.60;;;12.40;98.00;;;;;;5391073;26;20481;-92
2024/04/10 09:11:09;;;;;;;7.70;2.47;;;12.40;98.00;;;;;;5385736;26;20453;-92
2024/04/10 09:13:44;;;;;;;8.50;3.30;;;12.40;98.00;;;;;;5385914;26;20512;-92
2024/04/10 09:16:13;;;;;;;13.13;2.63;;;12.30;98.00;;;;;;5383650;26;20521;-92
2024/04/10 09:18:39;;;;;;;16.90;2.90;;;12.40;98.00;;;;;;5384318;26;20803;-91
2024/04/10 09:21:10;;;;;;;13.47;3.00;;;12.30;98.00;;;;;;5383113;26;20465;-92
2024/04/10 09:23:40;;;;;;;6.30;2.80;;;12.60;98.00;;;;;;5383679;26;20960;-92
2024/04/10 09:26:09;;;;;;;9.27;2.60;;;12.90;98.00;;;;;;5382795;26;20475;-92
2024/04/10 09:28:35;;;;;;;4.87;2.70;;;13.00;98.00;;;;;;5383213;26;20487;-92
2024/04/10 09:31:04;;;;;;;8.77;2.70;;;12.80;98.00;;;;;;5383129;26;20460;-91
2024/04/10 09:33:33;;;;;;;3.90;2.33;;;12.50;98.00;;;;;;5382845;26;20509;-92
2024/04/10 09:36:02;;;;;;;8.17;2.37;;;12.50;98.00;;;;;;5382288;26;20470;-90
2024/04/10 09:38:28;;;;;;;5.87;2.30;;;12.40;98.00;;;;;;5383243;26;20530;-90
2024/04/10 09:41:05;;;;;;;6.00;2.50;;;12.40;98.00;;;;;;5382303;26;20745;-91
2024/04/10 09:43:32;;;;;;;8.40;3.00;;;12.50;98.00;;;;;;5382726;26;20505;-93
2024/04/10 09:46:02;;;;;;;6.67;2.87;;;12.70;98.00;;;;;;5382534;26;20588;-92
2024/04/10 09:48:32;;;;;;;5.57;2.70;;;12.90;98.00;;;;;;5382769;26;20486;-92
2024/04/10 09:51:05;;;;;;;7.20;4.20;;;12.90;98.00;;;;;;5382730;26;20523;-91
2024/04/10 09:53:33;;;;;;;6.50;2.67;;;13.10;98.00;;;;;;5382293;26;20530;-92
2024/04/10 09:56:09;;;;;;;8.60;2.90;;;13.50;98.00;;;;;;5382161;26;20792;-91
2024/04/10 09:58:39;;;;;;;6.73;2.93;;;13.70;98.00;;;;;;5382427;26;20524;-90
2024/04/10 10:01:16;;;;;;;7.50;3.47;;;13.90;98.00;;;;;;5382001;26;20463;-91
2024/04/10 10:03:43;;;;;;;5.67;2.97;;;13.90;98.00;;;;;;5448550;26;20513;-89
2024/04/10 10:06:12;;;;;;;6.43;2.80;;;14.00;98.00;;;;;;5454766;26;20508;-90
2024/04/10 10:08:50;;;;;;;7.60;2.70;;;14.10;98.00;;;;;;5418207;26;20537;-90
2024/04/10 10:11:23;;;;;;;12.77;2.90;;;14.20;98.00;;;;;;5417984;26;20446;-89
2024/04/10 10:13:57;;;;;;;6.03;2.70;;;14.40;98.00;;;;;;5418748;26;20969;-90
2024/04/10 10:16:31;;;;;;;9.20;3.13;;;14.90;98.00;;;;;;5421495;26;20555;-90
2024/04/10 10:18:59;;;;;;;7.93;2.90;;;15.10;98.00;;;;;;5429700;26;20439;-90
2024/04/10 10:21:30;;;;;;;7.10;2.60;;;15.00;98.00;;;;;;5437039;26;20435;-87
2024/04/10 10:23:57;;;;;;;5.80;2.80;;;14.80;98.00;;;;;;5435265;26;20502;-89
2024/04/10 10:26:28;;;;;;;5.27;2.63;;;14.80;98.00;;;;;;5418596;26;20455;-89
2024/04/10 10:29:04;;;;;;;9.03;3.10;;;14.90;98.00;;;;;;5416239;26;20534;-89
2024/04/10 10:31:33;;;;;;;13.47;3.17;;;15.40;98.00;;;;;;5417349;26;20462;-90
2024/04/10 10:34:00;;;;;;;7.33;2.97;;;15.60;96.30;;;;;;5418349;26;20462;-89
2024/04/10 10:36:29;;;;;;;6.77;3.00;;;15.60;97.40;;;;;;5418078;26;20462;-89
2024/04/10 10:39:00;;;;;;;5.30;2.60;;;15.80;95.10;;;;;;5418156;26;20505;-88
2024/04/10 10:41:32;;;;;;;4.60;2.50;;;15.50;94.50;;;;;;5420574;26;20505;-88
2024/04/10 10:43:59;;;;;;;4.47;2.70;;;15.60;96.50;;;;;;5418349;26;20459;-89
2024/04/10 10:46:27;;;;;;;6.37;2.40;;;15.70;96.70;;;;;;5418673;26;20489;-88
2024/04/10 10:48:54;;;;;;;5.90;2.63;;;15.60;95.50;;;;;;5419228;26;20458;-88
2024/04/10 10:51:23;;;;;;;6.57;2.83;;;15.30;94.10;;;;;;5417329;26;20450;-88
2024/04/10 10:53:50;;;;;;;6.03;2.73;;;15.20;94.80;;;;;;5416846;26;20576;-88
2024/04/10 10:56:25;;;;;;;3.53;2.50;;;15.30;95.00;;;;;;5418860;26;20517;-88
2024/04/10 10:58:54;;;;;;;5.80;3.20;;;15.50;95.90;;;;;;5420423;26;20527;-88
2024/04/10 11:01:24;;;;;;;6.70;2.90;;;15.70;94.00;;;;;;5417375;26;20514;-89
2024/04/10 11:03:50;;;;;;;6.83;3.03;;;15.80;95.20;;;;;;5417015;26;20495;-88
2024/04/10 11:06:19;;;;;;;12.07;3.13;;;16.10;97.50;;;;;;5416401;26;21021;-89
2024/04/10 11:08:45;;;;;;;4.63;2.83;;;16.60;96.80;;;;;;5416337;26;20470;-89
2024/04/10 11:11:17;;;;;;;9.20;2.83;;;17.00;94.40;;;;;;5416389;26;20506;-89
2024/04/10 11:13:48;;;;;;;14.87;2.87;;;17.30;91.60;;;;;;5416993;26;21045;-89
2024/04/10 11:16:31;;;;;;;8.00;3.20;;;17.40;91.00;;;;;;5417503;26;20513;-89
2024/04/10 11:18:57;;;;;;;4.60;2.90;;;17.00;88.80;;;;;;5415950;26;20442;-88
2024/04/10 11:21:26;;;;;;;5.03;2.70;;;16.70;90.10;;;;;;5416066;26;20519;-88
2024/04/10 11:23:52;;;;;;;4.83;2.90;;;16.60;90.50;;;;;;5416071;26;20442;-89
2024/04/10 11:26:21;;;;;;;6.10;2.77;;;16.40;90.50;;;;;;5416226;26;20794;-89
2024/04/10 11:28:53;;;;;;;7.57;2.83;;;16.60;91.30;;;;;;5416266;26;20528;-88
2024/04/10 11:31:22;;;;;;;6.80;2.93;;;17.30;90.60;;;;;;5415492;26;20462;-87
2024/04/10 11:33:51;;;;;;;9.00;3.10;;;17.80;88.40;;;;;;5416366;26;20508;-90
2024/04/10 11:36:21;;;;;;;4.30;2.70;;;18.20;87.30;;;;;;5416666;26;20470;-89
2024/04/10 11:38:49;;;;;;;6.13;2.90;;;18.10;85.70;;;;;;5418260;26;20565;-90
2024/04/10 11:41:18;;;;;;;4.67;2.47;;;18.50;88.90;;;;;;5416151;26;20526;-90
2024/04/10 11:43:45;;;;;;;6.27;3.03;;;18.90;85.90;;;;;;5416064;26;20924;-90
2024/04/10 11:46:14;;;;;;;4.30;2.60;;;19.00;83.60;;;;;;5415871;26;20462;-89
2024/04/10 11:48:45;;;;;;;7.50;3.10;;;19.30;84.00;;;;;;5415545;26;20580;-89
2024/04/10 11:51:17;;;;;;;3.23;2.53;;;19.50;85.20;;;;;;5415701;26;20465;-90
2024/04/10 11:53:43;;;;;;;6.63;2.50;;;19.90;83.10;;;;;;5415757;26;21072;-89
2024/04/10 11:56:13;;;;;;;3.80;2.77;;;20.30;82.10;;;;;;5415506;26;20511;-88
2024/04/10 11:58:40;;;;;;;4.93;2.63;;;20.40;82.30;;;;;;5416051;26;20462;-89
2024/04/10 12:01:10;;;;;;;5.37;2.57;;;20.60;82.00;;;;;;5418246;26;20525;-90
2024/04/10 12:03:36;;;;;;;6.13;3.20;;;21.10;83.80;;;;;;5417377;26;20446;-89
2024/04/10 12:06:06;;;;;;;7.90;3.10;;;21.30;78.40;;;;;;5417830;26;20510;-89
2024/04/10 12:08:36;;;;;;;8.63;2.93;;;21.30;77.70;;;;;;5418596;26;20865;-90
2024/04/10 12:11:04;;;;;;;3.63;2.63;;;21.30;79.40;;;;;;5415056;26;20458;-89
2024/04/10 12:13:31;;;;;;;3.73;2.40;;;21.50;79.40;;;;;;5414921;26;20447;-88
2024/04/10 12:16:00;;;;;;;5.60;2.60;;;21.60;79.40;;;;;;5414878;26;20497;-89
2024/04/10 12:18:26;;;;;;;4.87;3.00;;;21.60;78.10;;;;;;5415526;26;20808;-89
2024/04/10 12:20:54;;;;;;;7.90;3.00;;;21.70;80.60;;;;;;5415370;26;20474;-89
2024/04/10 12:23:21;;;;;;;6.10;3.00;;;21.70;76.80;;;;;;5414632;26;20455;-88
2024/04/10 12:25:52;;;;;;;5.20;2.70;;;21.80;79.20;;;;;;5427503;26;20463;-89
2024/04/10 12:28:18;;;;;;;4.80;2.43;;;21.90;76.00;;;;;;5423137;26;20593;-89
2024/04/10 12:30:48;;;;;;;6.67;2.97;;;22.30;76.00;;;;;;5423692;26;20515;-89
2024/04/10 12:33:14;;;;;;;2.83;2.37;;;22.50;75.00;;;;;;5415330;26;21009;-89
2024/04/10 12:38:25;;;;;;;3.33;2.37;;;22.80;76.30;;;;;;5339980;26;20462;-89
2024/04/10 12:41:05;;;;;;;6.73;2.87;;;22.80;76.90;;;;;;5415993;26;20579;-88
2024/04/10 12:43:34;;;;;;;4.60;2.23;;;22.40;75.20;;;;;;5414440;26;20487;-88
2024/04/10 12:46:00;;;;;;;3.30;2.43;;;22.40;75.60;;;;;;5416876;26;20844;-88
2024/04/10 12:48:32;;;;;;;4.13;2.33;;;22.60;75.40;;;;;;5415956;26;20556;-89
2024/04/10 12:50:58;;;;;;;5.47;2.80;;;22.60;75.20;;;;;;5415078;26;20544;-89
2024/04/10 12:53:27;;;;;;;4.47;2.57;;;22.50;73.80;;;;;;5418692;26;20522;-87
2024/04/10 12:55:56;;;;;;;4.97;2.50;;;22.30;72.30;;;;;;5426628;26;20458;-88
2024/04/10 12:58:25;;;;;;;6.80;2.30;;;21.90;71.70;;;;;;5421775;26;20486;-87
2024/04/10 13:00:51;;;;;;;3.90;2.27;;;21.90;73.90;;;;;;5420892;26;20496;-89